x

South Brooks (46132) Wave Buoy

10:00 - Tue 17th Jan 2017 All times are PST. -8 hours from GMT.

  • Sig Wave height 19.7ft
  • Peak Period 11s
  • Wind
    27mph, 38mph gusts
  • Sea Temp 48°f
  • Aire Temp 49°f
  • Sea Pressure 990.2mb
  • South Brooks
  • South Brooks

More Historic Weather Station data

Upgrade to MSW Pro to gain access to the past 30 days of data for over 8000 Wavebouys and Weather Stations around the globe.

Join Pro

Comparision Forecast

View Surf forecast
   
mar 01/17 10:00 19.5ft 11s 27 38 mph 990.2mb 48f 49f
9:00 19.5ft 16s 27 34 mph 989.7mb 48f 49f
8:00 20.5ft 10s 27 38 mph 989.1mb 48f 50f
7:00 20.5ft 9s 31 38 mph 989.3mb 47f 49f
6:00 20ft 8s 29 36 mph 990.1mb 48f 49f
5:00 20.5ft 16s 25 31 mph 991.5mb 48f 49f
4:00 19ft 15s 29 36 mph 992.3mb 48f 49f
3:00 20ft 9s 34 40 mph 992.9mb 47f 49f
2:00 21.5ft 9s 36 43 mph 993.8mb 48f 49f
1:00 21.5ft 9s 36 47 mph 995mb 48f 49f
12:00  -   -  31
mph
996.5mb - 49f
lun 01/16 11:00 20.5ft 8s 31 40 mph 997.8mb 48f 49f
10:00 21.5ft 9s 29 38 mph 999.1mb 48f 49f
9:00 20ft 8s 31 40 mph 999.8mb 47f 49f
8:00 20ft 9s 34 45 mph 1000mb 47f 47f
7:00 19ft 8s 36 43 mph 1000.6mb 48f 47f
6:00 19ft 9s 34 40 mph 1001mb 48f 48f
5:00 18.5ft 9s 31 38 mph 1001.6mb 47f 48f
4:00 19ft 9s 34 45 mph 1002.5mb 47f 49f
3:00 17ft 8s 34 43 mph 1003.2mb 47f 48f
2:00 20ft 9s 36 47 mph 1003.7mb 47f 47f
1:00 18ft 8s 40 49 mph 1004.3mb 48f 46f
12:00 17.5ft 9s 43 51 mph 1005.2mb 47f 45f
11:00 16ft 8s 43 51 mph 1007.1mb 48f 45f
10:00 16.5ft 8s 43 49 mph 1008.7mb 47f 44f
9:00 15ft 8s 38 49 mph 1010.4mb 47f 44f
8:00 15ft 7s 36 47 mph 1011.5mb 47f 44f
7:00 14ft 8s 36 40 mph 1012.9mb 48f 45f
6:00 14ft 8s 34 40 mph 1013.9mb 48f 45f
5:00 13.5ft 7s 31 40 mph 1014.9mb 48f 46f
4:00 12.5ft 8s 31 40 mph 1016mb 48f 46f
3:00 12ft 7s 29 36 mph 1016.9mb 48f 46f
2:00 12ft 7s 29 36 mph 1017.8mb 47f 46f
1:00 11ft 6s 31 40 mph 1017.3mb 47f 47f
12:00 11ft 14s 34 40 mph 1018.1mb 47f 47f
dom 01/15 11:00 11ft 14s 31 38 mph 1019mb 48f 47f
10:00 10.5ft 15s 29 36 mph 1020.1mb 47f 47f
9:00 10ft 14s 27 36 mph 1020.2mb 47f 47f
8:00 10ft 16s 29 36 mph 1019.9mb 47f 47f
7:00 10.5ft 16s 29 36 mph 1020mb 47f 47f
6:00 10.5ft 15s 27 31 mph 1020.7mb 47f 47f
5:00 10ft 16s 25 29 mph 1021.2mb 47f 47f
4:00 11ft 16s 25 31 mph 1020.6mb 47f 46f
3:00 10ft 13s 22 27 mph 1021.7mb 48f 46f
2:00 11.5ft 17s 22 27 mph 1022mb 48f 46f
1:00 9.5ft 13s 20 25 mph 1022.8mb 48f 46f
12:00 9.5ft 11s 22 27 mph 1023.2mb 48f 46f
11:00 10ft 13s 20 27 mph 1023.6mb 48f 46f
10:00 8.5ft 17s 20 25 mph 1023.6mb 48f 46f
9:00 9.5ft 12s 20 27 mph 1023.3mb 48f 46f
8:00 10ft 17s 20 22 mph 1023.2mb 48f 46f
7:00 9ft 11s 20 25 mph 1023mb 48f 45f
6:00 8.5ft 17s 20 25 mph 1023.2mb 48f 45f
5:00 8ft 10s 20 22 mph 1023.1mb 47f 45f
4:00 8ft 12s 18 22 mph 1023.5mb 47f 45f
3:00 8ft 10s 16 20 mph 1023.5mb 47f 45f
2:00 8ft 12s 18 22 mph 1023.6mb 48f 45f
1:00 7.5ft 12s 18 20 mph 1023.7mb 48f 45f
12:00 7.5ft 11s 18 22 mph 1023.8mb 47f 46f
sáb 01/14 11:00 7.5ft 10s 18 22 mph 1024.1mb 47f 45f
10:00 8ft 10s 18 22 mph 1024mb 48f 45f
9:00 8ft 10s 16 22 mph 1024.1mb 47f 45f
8:00 8ft 11s 16 22 mph 1023.7mb 48f 45f
7:00 8ft 10s 18 20 mph 1023.6mb 48f 46f
6:00 8.5ft 10s 18 22 mph 1023.5mb 48f 45f
5:00 9ft 11s 18 25 mph 1023.7mb 48f 46f
4:00 9.5ft 10s 20 27 mph 1023.6mb 48f 45f
3:00  -   -  18
mph
1024mb - 46f
2:00 9ft 11s 20 27 mph 1023.5mb 47f 46f
1:00 9ft 10s 22 27 mph 1023.7mb 48f 45f
12:00 9ft 11s 25 29 mph 1024.2mb 47f 45f
11:00 8.5ft 10s 25 29 mph 1025.2mb 47f 44f
10:00 9ft 10s 22 29 mph 1025.8mb 47f 44f
9:00 9ft 11s 22 27 mph 1025.9mb 48f 44f
8:00 10ft 11s 25 29 mph 1025.7mb 47f 45f
7:00 9.5ft 11s 25 27 mph 1026.1mb 48f 45f
6:00 9ft 12s 22 27 mph 1026.6mb 48f 45f
5:00 8ft 12s 20 25 mph 1026.9mb 48f 46f
4:00 8ft 7s 22 25 mph 1026.9mb 48f 46f
3:00 7ft 6s 20 25 mph 1027.3mb 48f 46f
2:00 7ft 6s 18 22 mph 1027.3mb 48f 46f
1:00 7ft 6s 20 25 mph 1027.1mb 48f 46f
12:00 6.5ft 5s 20 25 mph 1026.7mb 48f 46f
vie 01/13 11:00 6.5ft 6s 20 25 mph 1027.4mb 48f 46f
10:00 6.5ft 6s 20 25 mph 1027.7mb 48f 46f
9:00 7ft 6s 18 22 mph 1027.8mb 48f 45f
8:00 7ft 6s 22 27 mph 1027.7mb 48f 44f